KJAS/JAS METAR and TAF weather

Enter ICAO airport designator
Station Type Date Time Source
KJAS METAR 2020/02/25 11:15 UTC NOAA

KJAS 251115Z AUTO 00000KT 4SM BR CLR 07/07 A2987 RMK AO2 T00720071


Station Type Date Time Source
KJAS Decoded METAR 2020/02/25 11:15 UTC NOAA

Jasper, Jasper County-Bell Field Airport, TX, United States (KJAS) 30-53-08N 094-02-05W
Feb 25, 2020 - 06:15 AM EST / 2020.02.25 1115 UTC
Wind: Calm:0
Visibility: 4 mile(s):0
Sky conditions: clear
Weather: mist
Temperature: 45.0 F (7.2 C)
Dew Point: 44.8 F (7.1 C)
Relative Humidity: 99%
Pressure (altimeter): 29.87 in. Hg (1011 hPa)
ob: KJAS 251115Z AUTO 00000KT 4SM BR CLR 07/07 A2987 RMK AO2 T00720071
cycle: 11

Station Type Date Time Source
KJAS TAF UTC NOAA

Error!

Example: see airport list